Time;durP1;ratioP1;P1;durP2;ratioP2;P2;SDS_P1;SDS_P2;PMS_P1;PMS_P2;Temp;Humidity;BMP_temperature;BMP_pressure;BME280_temperature;BME280_humidity;BME280_pressure;Samples;Min_cycle;Max_cycle;Signal;HPM_P1;HPM_P2
2023/09/30 00:00:52;;;;;;;0.80;0.40;;;;;;;16.48;100.00;101415.78;4885445;29;20523;-70
2023/09/30 00:03:22;;;;;;;0.80;0.40;;;;;;;16.55;100.00;101419.31;4885970;29;20929;-71
2023/09/30 00:05:51;;;;;;;0.80;0.40;;;;;;;16.48;100.00;101426.72;4887155;29;20435;-68
2023/09/30 00:08:20;;;;;;;0.80;0.40;;;;;;;16.37;100.00;101430.22;4884867;29;20438;-67
2023/09/30 00:10:49;;;;;;;0.80;0.40;;;;;;;16.30;100.00;101446.69;4900126;29;20816;-68
2023/09/30 00:13:17;;;;;;;0.80;0.40;;;;;;;16.17;100.00;101441.34;4882856;29;20781;-67
2023/09/30 00:15:47;;;;;;;1.10;0.70;;;;;;;16.14;100.00;101460.91;4880669;29;20417;-68
2023/09/30 00:18:16;;;;;;;0.80;0.40;;;;;;;16.07;100.00;101463.69;4881425;29;20439;-71
2023/09/30 00:20:46;;;;;;;0.80;0.50;;;;;;;15.99;100.00;101466.72;4883293;29;20505;-68
2023/09/30 00:23:15;;;;;;;0.80;0.40;;;;;;;15.92;99.04;101476.06;4887499;29;20446;-66
2023/09/30 00:25:44;;;;;;;0.80;0.40;;;;;;;15.84;98.51;101476.31;4890089;29;20506;-68
2023/09/30 00:28:13;;;;;;;0.80;0.40;;;;;;;15.79;96.42;101485.16;4883134;29;20439;-68
2023/09/30 00:30:41;;;;;;;0.80;0.40;;;;;;;15.71;95.95;101479.16;4885266;29;20870;-68
2023/09/30 00:33:10;;;;;;;0.80;0.50;;;;;;;15.66;95.65;101488.00;4888394;29;20819;-67
2023/09/30 00:35:39;;;;;;;0.80;0.50;;;;;;;15.58;95.62;101491.84;4881754;29;20506;-68
2023/09/30 00:38:10;;;;;;;0.80;0.40;;;;;;;15.50;95.67;101497.53;4880046;29;20436;-68
2023/09/30 00:40:39;;;;;;;0.80;0.50;;;;;;;15.44;96.09;101492.94;4880177;29;20458;-67
2023/09/30 00:43:07;;;;;;;1.17;0.80;;;;;;;15.41;96.73;101495.28;4879324;29;20440;-67
2023/09/30 00:45:39;;;;;;;0.80;0.40;;;;;;;15.31;97.47;101498.47;4880266;29;20438;-68
2023/09/30 00:48:08;;;;;;;0.80;0.40;;;;;;;15.27;98.34;101507.31;4879931;29;20443;-67
2023/09/30 00:50:37;;;;;;;0.80;0.40;;;;;;;15.21;98.88;101507.13;4880759;29;20969;-67
2023/09/30 00:53:07;;;;;;;0.80;0.50;;;;;;;15.18;97.87;101512.19;4884552;29;20482;-67
2023/09/30 00:55:37;;;;;;;0.80;0.40;;;;;;;15.16;97.65;101517.84;4880196;29;20435;-67
2023/09/30 00:58:07;;;;;;;0.80;0.40;;;;;;;15.10;97.87;101507.00;4880018;29;20774;-67
2023/09/30 01:00:36;;;;;;;0.80;0.50;;;;;;;15.06;96.81;101514.75;4881519;29;20483;-68
2023/09/30 01:03:05;;;;;;;0.80;0.50;;;;;;;14.96;97.28;101510.84;4879844;29;20409;-66
2023/09/30 01:05:35;;;;;;;0.80;0.50;;;;;;;14.92;97.15;101512.28;4881827;29;20468;-67
2023/09/30 01:08:05;;;;;;;0.80;0.40;;;;;;;14.86;97.59;101507.72;4890332;29;20838;-66
2023/09/30 01:10:33;;;;;;;0.80;0.40;;;;;;;14.79;97.77;101514.03;4861308;29;20479;-67
2023/09/30 01:13:04;;;;;;;0.80;0.40;;;;;;;14.72;98.59;101521.38;4872722;29;20447;-67
2023/09/30 01:15:33;;;;;;;0.80;0.40;;;;;;;14.71;99.00;101524.34;4865751;29;20413;-66
2023/09/30 01:18:01;;;;;;;0.80;0.60;;;;;;;14.67;99.56;101520.34;4878910;29;20455;-67
2023/09/30 01:20:31;;;;;;;0.80;0.40;;;;;;;14.58;99.99;101519.75;4874268;29;20478;-67
2023/09/30 01:23:03;;;;;;;0.80;0.40;;;;;;;14.57;99.97;101539.03;4875990;29;20493;-67
2023/09/30 01:25:33;;;;;;;0.80;0.40;;;;;;;14.47;100.00;101535.91;4875390;29;20464;-66
2023/09/30 01:28:06;;;;;;;0.80;0.40;;;;;;;14.35;100.00;101544.69;4883749;29;20795;-68
2023/09/30 01:30:35;;;;;;;0.80;0.50;;;;;;;14.34;100.00;101547.63;4884674;29;20466;-68
2023/09/30 01:33:04;;;;;;;0.80;0.50;;;;;;;14.30;100.00;101549.94;4879739;29;20435;-67
2023/09/30 01:35:33;;;;;;;0.80;0.40;;;;;;;14.26;100.00;101548.69;4878361;29;20444;-67
2023/09/30 01:38:03;;;;;;;4.77;0.70;;;;;;;14.26;100.00;101556.84;4879082;29;20431;-67
2023/09/30 01:40:32;;;;;;;2.13;1.20;;;;;;;14.20;100.00;101554.97;4879972;29;20805;-69
2023/09/30 01:43:00;;;;;;;0.90;0.70;;;;;;;14.18;100.00;101562.50;4872486;29;20410;-67
2023/09/30 01:45:29;;;;;;;0.80;0.50;;;;;;;14.08;100.00;101561.25;4874449;29;20464;-67
2023/09/30 01:47:59;;;;;;;0.80;0.50;;;;;;;14.02;100.00;101571.09;4878168;29;20417;-67
2023/09/30 01:50:28;;;;;;;0.80;0.50;;;;;;;13.99;100.00;101573.41;4879941;29;20482;-67
2023/09/30 01:52:56;;;;;;;0.80;0.40;;;;;;;13.99;100.00;101576.91;4883440;29;20461;-68
2023/09/30 01:55:27;;;;;;;0.80;0.43;;;;;;;13.86;100.00;101575.03;4879989;29;20418;-68
2023/09/30 01:57:56;;;;;;;1.33;0.70;;;;;;;13.70;100.00;101577.31;4885412;29;20436;-68
2023/09/30 02:00:24;;;;;;;0.80;0.50;;;;;;;13.60;100.00;101583.16;4886822;29;20513;-67
2023/09/30 02:02:54;;;;;;;1.27;1.00;;;;;;;13.72;100.00;101577.94;4882982;29;20761;-68
2023/09/30 02:05:23;;;;;;;0.80;0.50;;;;;;;13.71;100.00;101587.13;4890947;29;20446;-68
2023/09/30 02:07:52;;;;;;;0.80;0.40;;;;;;;13.62;100.00;101591.09;4888242;29;20788;-68
2023/09/30 02:10:23;;;;;;;0.97;0.50;;;;;;;13.58;100.00;101593.41;4883365;29;20699;-69
2023/09/30 02:12:53;;;;;;;0.80;0.50;;;;;;;13.59;100.00;101594.22;4882055;29;20440;-69
2023/09/30 02:15:22;;;;;;;0.90;0.70;;;;;;;13.52;100.00;101596.94;4881158;29;20451;-67
2023/09/30 02:17:51;;;;;;;0.80;0.40;;;;;;;13.39;100.00;101600.44;4880315;29;20435;-67
2023/09/30 02:20:25;;;;;;;0.80;0.50;;;;;;;13.35;100.00;101596.47;4880888;29;20443;-68
2023/09/30 02:26:29;;;;;;;0.80;0.40;;;;;;;13.25;100.00;101592.44;4876925;29;20447;-68
2023/09/30 02:28:59;;;;;;;0.80;0.50;;;;;;;13.12;100.00;101589.69;4878912;29;20405;-68
2023/09/30 02:31:28;;;;;;;1.60;1.23;;;;;;;13.18;100.00;101600.56;4887620;29;20544;-67
2023/09/30 02:33:57;;;;;;;0.80;0.50;;;;;;;13.14;100.00;101602.00;4889086;29;20439;-67
2023/09/30 02:36:27;;;;;;;0.80;0.50;;;;;;;13.13;100.00;101600.31;4878943;29;20466;-67
2023/09/30 02:38:55;;;;;;;0.80;0.50;;;;;;;13.15;100.00;101614.56;4886792;29;20444;-67
2023/09/30 02:41:24;;;;;;;0.80;0.60;;;;;;;13.10;100.00;101619.72;4879141;29;20991;-68
2023/09/30 02:43:53;;;;;;;0.80;0.50;;;;;;;13.06;100.00;101621.19;4883078;29;20431;-67
2023/09/30 02:46:23;;;;;;;0.80;0.60;;;;;;;13.12;100.00;101620.38;4879992;29;20469;-68
2023/09/30 02:48:53;;;;;;;0.80;0.50;;;;;;;13.08;100.00;101635.38;4873143;29;20451;-67
2023/09/30 02:51:22;;;;;;;0.80;0.50;;;;;;;13.20;100.00;101635.69;4876938;29;20483;-67
2023/09/30 02:53:51;;;;;;;0.80;0.50;;;;;;;13.12;100.00;101633.97;4877122;29;20489;-66
2023/09/30 02:56:20;;;;;;;0.90;0.60;;;;;;;13.08;100.00;101643.53;4873326;29;20945;-67
2023/09/30 02:58:49;;;;;;;0.80;0.40;;;;;;;13.12;100.00;101639.41;4878804;29;20445;-67
2023/09/30 03:01:17;;;;;;;0.80;0.40;;;;;;;13.03;100.00;101640.56;4886664;29;20447;-66
2023/09/30 03:03:47;;;;;;;0.80;0.40;;;;;;;13.05;100.00;101649.38;4881254;29;20919;-66
2023/09/30 03:06:18;;;;;;;0.80;0.40;;;;;;;13.00;100.00;101651.84;4878538;29;20406;-68
2023/09/30 03:08:48;;;;;;;1.00;0.80;;;;;;;12.95;100.00;101641.59;4878676;29;20847;-67
2023/09/30 03:11:16;;;;;;;0.90;0.50;;;;;;;13.06;100.00;101651.91;4879771;29;20475;-67
2023/09/30 03:13:45;;;;;;;0.80;0.50;;;;;;;13.01;100.00;101650.81;4883842;29;20416;-66
2023/09/30 03:16:14;;;;;;;0.80;0.40;;;;;;;12.96;100.00;101653.31;4881884;29;20457;-68
2023/09/30 03:18:44;;;;;;;0.90;0.60;;;;;;;12.97;100.00;101653.06;4883995;29;20443;-67
2023/09/30 03:21:16;;;;;;;0.80;0.50;;;;;;;12.87;100.00;101659.94;4881085;29;20537;-67
2023/09/30 03:23:46;;;;;;;0.80;0.50;;;;;;;12.87;100.00;101660.78;4881286;29;20435;-67
2023/09/30 03:26:15;;;;;;;0.90;0.50;;;;;;;12.94;100.00;101674.38;4883281;29;20401;-68
2023/09/30 03:28:46;;;;;;;0.80;0.53;;;;;;;12.91;100.00;101664.75;4880072;29;20410;-66
2023/09/30 03:31:20;;;;;;;0.80;0.50;;;;;;;12.94;100.00;101668.94;4887811;29;20453;-67
2023/09/30 03:33:49;;;;;;;0.80;0.40;;;;;;;12.79;100.00;101663.63;4880209;29;20442;-66
2023/09/30 03:36:19;;;;;;;0.80;0.50;;;;;;;12.70;100.00;101669.41;4887974;29;20447;-68
2023/09/30 03:38:47;;;;;;;0.80;0.50;;;;;;;12.66;100.00;101662.69;4880635;29;20427;-67
2023/09/30 03:41:19;;;;;;;0.80;0.50;;;;;;;12.61;100.00;101664.13;4880055;29;20958;-68
2023/09/30 03:43:49;;;;;;;0.80;0.40;;;;;;;12.63;100.00;101655.78;4879930;29;20843;-67
2023/09/30 03:46:17;;;;;;;0.80;0.50;;;;;;;12.64;100.00;101655.56;4883269;29;20506;-68
2023/09/30 03:48:47;;;;;;;1.63;0.80;;;;;;;12.58;100.00;101664.53;4874628;29;20439;-69
2023/09/30 03:51:16;;;;;;;1.00;0.80;;;;;;;12.61;100.00;101669.56;4878911;29;20467;-68
2023/09/30 03:53:46;;;;;;;0.80;0.50;;;;;;;12.61;100.00;101680.41;4888061;29;20738;-67
2023/09/30 03:56:15;;;;;;;0.80;0.50;;;;;;;12.60;100.00;101678.72;4886589;29;20421;-67
2023/09/30 03:58:44;;;;;;;0.80;0.40;;;;;;;12.62;100.00;101684.81;4879736;29;20933;-66
2023/09/30 04:01:14;;;;;;;0.80;0.50;;;;;;;12.53;100.00;101674.28;4881257;29;20549;-68
2023/09/30 04:03:43;;;;;;;0.80;0.50;;;;;;;12.57;100.00;101684.56;4888934;29;20525;-67
2023/09/30 04:06:13;;;;;;;0.80;0.50;;;;;;;12.48;100.00;101690.34;4876010;29;20453;-68
2023/09/30 04:08:43;;;;;;;0.80;0.40;;;;;;;12.44;100.00;101676.28;4895040;29;20961;-67
2023/09/30 04:11:17;;;;;;;0.80;0.60;;;;;;;12.38;100.00;101687.94;4866680;29;20469;-67
2023/09/30 04:13:46;;;;;;;0.80;0.40;;;;;;;12.45;100.00;101686.13;4883886;29;20492;-65
2023/09/30 04:16:15;;;;;;;0.80;0.50;;;;;;;12.48;100.00;101685.75;4879180;29;20409;-67
2023/09/30 04:18:44;;;;;;;0.80;0.50;;;;;;;12.47;100.00;101696.78;4893594;29;20489;-68
2023/09/30 04:21:13;;;;;;;0.80;0.50;;;;;;;12.39;100.00;101691.50;4889041;29;20523;-68
2023/09/30 04:23:41;;;;;;;0.80;0.40;;;;;;;12.39;100.00;101697.75;4881599;29;20805;-68
2023/09/30 04:26:10;;;;;;;0.80;0.50;;;;;;;12.38;100.00;101704.22;4881310;29;20436;-68
2023/09/30 04:28:40;;;;;;;0.80;0.40;;;;;;;12.37;100.00;101707.97;4881004;29;20818;-68
2023/09/30 04:31:11;;;;;;;0.80;0.70;;;;;;;12.31;100.00;101706.03;4890627;29;20546;-67
2023/09/30 04:33:40;;;;;;;0.90;0.53;;;;;;;12.31;100.00;101710.63;4886101;29;20510;-67
2023/09/30 04:36:11;;;;;;;0.80;0.50;;;;;;;12.25;100.00;101712.22;4882215;29;20431;-67
2023/09/30 04:38:39;;;;;;;0.83;0.53;;;;;;;12.27;100.00;101704.75;4874065;29;20495;-68
2023/09/30 04:41:08;;;;;;;0.80;0.50;;;;;;;12.16;100.00;101713.38;4880800;29;20829;-67
2023/09/30 04:43:39;;;;;;;1.00;0.63;;;;;;;12.20;100.00;101698.38;4876241;29;20445;-67
2023/09/30 04:46:12;;;;;;;0.80;0.50;;;;;;;12.14;100.00;101704.63;4873945;29;20818;-68
2023/09/30 04:48:41;;;;;;;0.80;0.50;;;;;;;12.06;100.00;101702.84;4873342;29;20995;-66
2023/09/30 04:51:13;;;;;;;0.80;0.40;;;;;;;12.10;100.00;101696.00;4881257;29;20463;-67
2023/09/30 04:53:42;;;;;;;1.43;0.63;;;;;;;12.08;100.00;101695.38;4881053;29;20540;-67
2023/09/30 04:56:10;;;;;;;0.80;0.40;;;;;;;11.91;100.00;101687.69;4882864;29;20436;-67
2023/09/30 04:58:39;;;;;;;0.90;0.70;;;;;;;11.90;100.00;101694.13;4880597;29;20929;-67
2023/09/30 05:01:09;;;;;;;0.80;0.40;;;;;;;11.86;100.00;101707.19;4878600;29;20874;-68
2023/09/30 05:03:38;;;;;;;0.80;0.40;;;;;;;11.94;100.00;101708.97;4880266;29;20514;-67
2023/09/30 05:06:07;;;;;;;0.80;0.40;;;;;;;11.93;100.00;101712.72;4882511;29;20522;-68
2023/09/30 05:08:36;;;;;;;0.80;0.40;;;;;;;12.03;100.00;101719.53;4885789;29;20410;-66
2023/09/30 05:11:05;;;;;;;0.80;0.50;;;;;;;11.97;100.00;101731.13;4894136;29;20451;-65
2023/09/30 05:13:34;;;;;;;3.33;1.50;;;;;;;12.09;100.00;101728.78;4882114;29;20989;-66
2023/09/30 05:16:03;;;;;;;0.80;0.50;;;;;;;12.10;100.00;101730.47;4880545;29;20447;-66
2023/09/30 05:18:33;;;;;;;0.80;0.40;;;;;;;12.04;100.00;101731.22;4880530;29;20926;-68
2023/09/30 05:21:02;;;;;;;1.17;1.07;;;;;;;12.09;100.00;101726.06;4880049;29;20471;-68
2023/09/30 05:23:32;;;;;;;0.80;0.50;;;;;;;12.10;100.00;101727.75;4874354;29;20505;-67
2023/09/30 05:26:01;;;;;;;0.90;0.63;;;;;;;12.13;100.00;101717.34;4880860;29;20439;-68
2023/09/30 05:28:31;;;;;;;0.80;0.50;;;;;;;12.11;100.00;101729.41;4884355;29;20877;-67
2023/09/30 05:31:00;;;;;;;0.80;0.40;;;;;;;12.19;100.00;101740.16;4880501;29;20459;-68
2023/09/30 05:33:30;;;;;;;0.80;0.50;;;;;;;12.31;100.00;101738.59;4880362;29;20986;-67
2023/09/30 05:36:02;;;;;;;0.80;0.60;;;;;;;12.31;100.00;101741.31;4882608;29;20410;-67
2023/09/30 05:38:31;;;;;;;0.80;0.60;;;;;;;12.37;100.00;101756.00;4880140;29;20484;-68
2023/09/30 05:41:01;;;;;;;0.80;0.40;;;;;;;12.47;100.00;101751.94;4884140;29;20475;-69
2023/09/30 05:43:30;;;;;;;0.80;0.50;;;;;;;12.50;100.00;101753.41;4887277;29;20393;-68
2023/09/30 05:45:59;;;;;;;0.97;0.87;;;;;;;12.54;100.00;101754.69;4883623;29;20538;-69
2023/09/30 05:48:30;;;;;;;0.90;0.60;;;;;;;12.61;100.00;101761.03;4879593;29;20425;-67
2023/09/30 05:51:01;;;;;;;0.80;0.50;;;;;;;12.67;100.00;101764.84;4881608;29;20437;-68
2023/09/30 05:53:32;;;;;;;0.80;0.50;;;;;;;12.88;100.00;101767.53;4879762;29;20490;-68
2023/09/30 05:56:01;;;;;;;0.80;0.50;;;;;;;12.98;100.00;101777.03;4879471;29;20535;-67
2023/09/30 05:58:32;;;;;;;0.80;0.40;;;;;;;13.13;100.00;101781.56;4878264;29;20809;-68
2023/09/30 06:01:01;;;;;;;0.90;0.70;;;;;;;13.27;100.00;101791.50;4882233;29;20498;-68
2023/09/30 06:03:30;;;;;;;1.83;0.70;;;;;;;13.38;100.00;101783.63;4875830;29;20534;-68
2023/09/30 06:06:00;;;;;;;1.17;1.07;;;;;;;13.59;100.00;101792.75;4881182;29;20495;-67
2023/09/30 06:08:29;;;;;;;2.50;0.80;;;;;;;13.67;100.00;101795.31;4873936;29;20474;-67
2023/09/30 06:10:58;;;;;;;1.67;1.57;;;;;;;13.78;100.00;101792.88;4879073;29;20469;-67
2023/09/30 06:13:28;;;;;;;0.87;0.57;;;;;;;13.94;100.00;101800.69;4878806;29;20518;-68
2023/09/30 06:15:56;;;;;;;1.00;0.60;;;;;;;14.09;100.00;101805.13;4877300;29;20514;-66
2023/09/30 06:18:25;;;;;;;0.90;0.67;;;;;;;14.22;100.00;101800.59;4878600;29;20508;-67
2023/09/30 06:20:54;;;;;;;2.37;2.03;;;;;;;14.30;100.00;101796.84;4974980;23;20440;-68
2023/09/30 06:23:24;;;;;;;1.07;0.97;;;;;;;14.40;100.00;101796.50;4877399;29;20408;-69
2023/09/30 06:25:52;;;;;;;0.83;0.53;;;;;;;14.43;100.00;101802.34;4875844;29;20435;-68
2023/09/30 06:28:25;;;;;;;0.93;0.73;;;;;;;14.42;100.00;101810.75;4884304;29;20443;-69
2023/09/30 06:30:54;;;;;;;0.80;0.60;;;;;;;14.32;100.00;101820.13;4873457;29;20454;-68
2023/09/30 06:33:23;;;;;;;0.80;0.50;;;;;;;14.24;100.00;101814.84;4859957;29;20457;-68
2023/09/30 06:35:52;;;;;;;0.80;0.50;;;;;;;14.03;100.00;101823.16;4853510;29;20430;-68
2023/09/30 06:38:21;;;;;;;1.43;1.33;;;;;;;14.03;100.00;101834.03;4859139;29;20440;-68
2023/09/30 06:40:51;;;;;;;1.57;0.67;;;;;;;14.06;100.00;101838.22;4860451;29;20499;-69
2023/09/30 06:43:19;;;;;;;0.80;0.40;;;;;;;13.94;100.00;101835.25;4860604;29;20503;-69
2023/09/30 06:45:48;;;;;;;0.80;0.40;;;;;;;13.97;100.00;101837.56;4863656;29;20407;-68
2023/09/30 06:48:18;;;;;;;0.80;0.40;;;;;;;14.14;100.00;101836.16;4863944;29;20487;-69
2023/09/30 06:50:48;;;;;;;0.80;0.50;;;;;;;14.29;100.00;101827.84;4860434;29;20450;-68
2023/09/30 06:53:18;;;;;;;0.80;0.50;;;;;;;14.62;100.00;101842.44;4867369;29;20484;-69
2023/09/30 06:55:47;;;;;;;0.80;0.50;;;;;;;14.90;100.00;101839.56;4860607;29;20498;-69
2023/09/30 06:58:20;;;;;;;0.80;0.50;;;;;;;15.21;99.81;101849.84;4868366;29;20446;-67
2023/09/30 07:00:50;;;;;;;0.80;0.50;;;;;;;15.38;97.19;101850.28;4865482;29;20464;-68
2023/09/30 07:03:20;;;;;;;0.80;0.50;;;;;;;15.29;96.79;101843.34;4860630;29;20955;-68
2023/09/30 07:05:54;;;;;;;0.80;0.50;;;;;;;15.38;96.42;101850.28;4852018;29;20466;-68
2023/09/30 07:08:23;;;;;;;0.80;0.50;;;;;;;15.22;97.04;101852.38;4859640;29;20454;-68
2023/09/30 07:10:52;;;;;;;0.80;0.50;;;;;;;15.11;96.16;101857.59;4865753;29;20825;-67
2023/09/30 07:13:23;;;;;;;0.80;0.40;;;;;;;15.11;97.28;101869.34;4871756;29;20446;-68
2023/09/30 07:15:52;;;;;;;1.63;1.30;;;;;;;15.29;97.40;101884.25;4865588;29;20414;-69
2023/09/30 07:18:21;;;;;;;1.10;1.00;;;;;;;15.52;95.18;101885.56;4861154;29;20809;-68
2023/09/30 07:20:50;;;;;;;0.80;0.40;;;;;;;15.64;94.17;101872.94;4858802;29;20464;-69
2023/09/30 07:23:18;;;;;;;1.30;0.60;;;;;;;15.64;92.95;101874.81;4865858;29;20505;-69
2023/09/30 07:25:48;;;;;;;0.80;0.40;;;;;;;15.52;93.62;101880.09;4863732;29;20502;-68
2023/09/30 07:28:17;;;;;;;0.80;0.40;;;;;;;15.40;94.64;101891.78;4869109;29;20974;-69
2023/09/30 07:30:47;;;;;;;0.80;0.50;;;;;;;15.44;94.53;101887.63;4868511;29;20816;-69
2023/09/30 07:33:16;;;;;;;0.80;0.47;;;;;;;15.61;94.23;101889.75;4871440;29;20447;-69
2023/09/30 07:35:45;;;;;;;0.80;0.40;;;;;;;15.62;93.58;101872.31;4868540;29;20522;-69
2023/09/30 07:38:14;;;;;;;2.70;0.70;;;;;;;15.68;92.71;101887.00;4865111;29;20415;-68
2023/09/30 07:40:43;;;;;;;0.80;0.50;;;;;;;15.68;92.70;101883.44;4864060;29;20814;-69
2023/09/30 07:43:12;;;;;;;0.80;0.50;;;;;;;15.63;92.70;101898.56;4869715;29;20860;-69
2023/09/30 07:45:44;;;;;;;0.80;0.40;;;;;;;15.69;93.53;101899.59;4865104;29;20879;-69
2023/09/30 07:48:14;;;;;;;0.80;0.40;;;;;;;15.56;94.10;101908.63;4863666;29;20421;-69
2023/09/30 07:50:43;;;;;;;0.80;0.50;;;;;;;15.45;94.12;101900.19;4863385;29;20511;-68
2023/09/30 07:53:13;;;;;;;0.90;0.60;;;;;;;15.49;93.82;101896.03;4863237;29;20414;-69
2023/09/30 07:55:41;;;;;;;0.80;0.50;;;;;;;15.56;93.72;101905.06;4872628;29;20465;-67
2023/09/30 07:58:10;;;;;;;0.80;0.40;;;;;;;15.49;94.84;101913.19;4865736;29;20430;-69
2023/09/30 08:00:39;;;;;;;0.80;0.40;;;;;;;15.72;92.61;101915.56;4870733;29;20821;-68
2023/09/30 08:03:07;;;;;;;0.80;0.40;;;;;;;15.77;92.66;101913.03;4875685;29;20469;-68
2023/09/30 08:05:38;;;;;;;0.80;0.50;;;;;;;15.77;92.74;101909.47;4867789;29;20488;-67
2023/09/30 08:08:06;;;;;;;0.90;0.50;;;;;;;15.94;91.94;101916.13;4861882;29;20454;-68
2023/09/30 08:10:36;;;;;;;0.80;0.40;;;;;;;15.81;91.72;101917.00;4860536;29;20415;-68
2023/09/30 08:13:05;;;;;;;1.07;0.57;;;;;;;15.92;91.39;101919.09;4875612;29;21027;-68
2023/09/30 08:15:35;;;;;;;0.80;0.50;;;;;;;15.98;90.59;101920.13;4864107;29;20529;-68
2023/09/30 08:18:05;;;;;;;0.80;0.40;;;;;;;16.14;90.38;101927.03;4863240;29;20444;-69
2023/09/30 08:20:35;;;;;;;0.80;0.40;;;;;;;16.18;89.20;101923.66;4850101;29;20908;-69
2023/09/30 08:23:05;;;;;;;0.80;0.50;;;;;;;16.32;88.53;101929.91;4862543;29;20506;-67
2023/09/30 08:25:33;;;;;;;0.80;0.50;;;;;;;16.37;87.86;101928.22;4855202;29;20399;-68
2023/09/30 08:28:02;;;;;;;0.80;0.40;;;;;;;16.28;88.30;101934.97;4868516;29;20503;-68
2023/09/30 08:30:31;;;;;;;0.80;0.50;;;;;;;16.68;86.15;101938.44;4862013;29;20414;-68
2023/09/30 08:33:00;;;;;;;0.80;0.50;;;;;;;16.76;85.42;101932.69;4862479;29;20447;-68
2023/09/30 08:35:29;;;;;;;1.03;0.73;;;;;;;16.77;85.83;101926.19;4863927;29;20467;-69
2023/09/30 08:37:58;;;;;;;0.80;0.40;;;;;;;16.93;84.66;101939.34;4861302;29;20414;-67
2023/09/30 08:40:28;;;;;;;0.80;0.40;;;;;;;16.83;84.91;101933.53;4867226;29;20441;-68
2023/09/30 08:42:57;;;;;;;1.17;0.87;;;;;;;16.91;84.93;101937.88;4864037;29;20510;-67
2023/09/30 08:45:28;;;;;;;1.00;0.50;;;;;;;16.88;83.99;101947.38;4864520;29;20443;-68
2023/09/30 08:48:00;;;;;;;0.80;0.40;;;;;;;16.66;85.00;101937.78;4863613;29;20848;-69
2023/09/30 08:50:29;;;;;;;0.80;0.40;;;;;;;16.76;84.16;101938.16;4862652;29;20432;-68
2023/09/30 08:52:58;;;;;;;0.80;0.40;;;;;;;16.81;83.96;101934.78;4867523;29;20481;-68
2023/09/30 08:55:29;;;;;;;1.00;0.70;;;;;;;16.64;84.46;101939.09;4860929;29;20544;-69
2023/09/30 08:57:58;;;;;;;0.80;0.50;;;;;;;16.60;85.76;101932.38;4864177;29;20817;-68
2023/09/30 09:00:30;;;;;;;0.80;0.50;;;;;;;16.62;85.69;101942.03;4858287;29;20982;-68
2023/09/30 09:02:59;;;;;;;0.80;0.40;;;;;;;16.66;85.56;101935.06;4867750;29;20490;-68
2023/09/30 09:05:27;;;;;;;0.80;0.40;;;;;;;16.90;84.92;101936.19;4867156;29;20415;-68
2023/09/30 09:07:56;;;;;;;1.20;0.70;;;;;;;17.11;83.21;101935.03;4866038;29;20951;-68
2023/09/30 09:10:27;;;;;;;0.80;0.40;;;;;;;17.29;81.39;101935.09;4862844;29;20867;-68
2023/09/30 09:12:58;;;;;;;0.80;0.40;;;;;;;17.37;81.11;101934.88;4866469;29;20510;-69
2023/09/30 09:15:28;;;;;;;0.80;0.40;;;;;;;17.53;80.60;101926.09;4864510;29;20546;-68
2023/09/30 09:17:57;;;;;;;0.90;0.40;;;;;;;17.62;78.89;101932.97;4861486;29;20414;-68
2023/09/30 09:20:28;;;;;;;0.83;0.40;;;;;;;17.57;79.14;101929.22;4875517;29;20422;-67
2023/09/30 09:23:00;;;;;;;0.87;0.40;;;;;;;17.77;77.52;101930.75;4860214;29;20829;-67
2023/09/30 09:25:38;;;;;;;0.90;0.40;;;;;;;17.83;76.62;101930.91;4867349;29;20945;-68
2023/09/30 09:28:07;;;;;;;0.87;0.40;;;;;;;17.63;77.98;101922.88;4855531;29;20425;-68
2023/09/30 09:30:40;;;;;;;1.00;0.57;;;;;;;18.06;77.59;101933.84;4861073;29;20842;-68
2023/09/30 09:33:09;;;;;;;0.80;0.40;;;;;;;18.48;74.45;101937.59;4862609;29;20440;-67
2023/09/30 09:35:38;;;;;;;0.90;0.40;;;;;;;18.63;72.99;101938.09;4859972;29;20834;-67
2023/09/30 09:38:08;;;;;;;0.90;0.40;;;;;;;18.52;73.41;101942.38;4861251;29;20494;-68
2023/09/30 09:40:40;;;;;;;0.90;0.40;;;;;;;18.58;72.63;101936.03;4859956;29;20432;-67
2023/09/30 09:43:09;;;;;;;0.90;0.40;;;;;;;18.39;71.07;101936.22;4861212;29;20509;-68
2023/09/30 09:45:39;;;;;;;0.90;0.50;;;;;;;18.55;71.79;101933.72;4862784;29;20563;-68
2023/09/30 09:48:08;;;;;;;0.90;0.40;;;;;;;18.78;72.01;101926.72;4861006;29;20832;-68
2023/09/30 09:50:38;;;;;;;0.90;0.47;;;;;;;18.92;71.69;101928.19;4862173;29;20422;-68
2023/09/30 09:53:08;;;;;;;0.90;0.40;;;;;;;19.03;70.46;101935.63;4862282;29;20450;-67
2023/09/30 09:55:41;;;;;;;0.90;0.53;;;;;;;19.17;69.71;101942.56;4865078;29;20502;-67
2023/09/30 09:58:11;;;;;;;0.90;0.40;;;;;;;19.06;69.86;101940.66;4861135;29;20471;-68
2023/09/30 10:00:41;;;;;;;0.90;0.40;;;;;;;18.65;70.38;101939.50;4861940;29;20508;-68
2023/09/30 10:03:12;;;;;;;0.90;0.40;;;;;;;18.95;69.63;101933.22;4866700;29;20524;-68
2023/09/30 10:05:42;;;;;;;0.90;0.50;;;;;;;19.36;67.65;101944.22;4864627;29;20448;-67
2023/09/30 10:08:17;;;;;;;0.90;0.40;;;;;;;19.31;67.45;101932.25;4868206;29;20989;-69
2023/09/30 10:10:47;;;;;;;0.90;0.40;;;;;;;19.67;67.23;101942.25;4862746;29;20947;-69
2023/09/30 10:13:55;;;;;;;0.90;0.40;;;;;;;18.97;67.16;101936.56;4864613;29;20445;-66
2023/09/30 10:16:49;;;;;;;0.90;0.40;;;;;;;18.82;67.91;101928.75;4862115;29;20475;-67
2023/09/30 10:19:22;;;;;;;0.90;0.40;;;;;;;18.62;69.14;101933.66;4854519;29;20444;-68
2023/09/30 10:22:22;;;;;;;0.90;0.40;;;;;;;18.59;69.06;101940.41;4867495;29;20511;-67
2023/09/30 10:24:53;;;;;;;0.90;0.40;;;;;;;18.58;68.65;101938.78;4859708;29;20427;-68
2023/09/30 10:27:37;;;;;;;0.83;0.40;;;;;;;18.50;68.50;101946.41;4853537;29;20435;-68
2023/09/30 10:30:16;;;;;;;1.33;0.50;;;;;;;18.62;68.50;101939.97;4865598;29;20436;-65
2023/09/30 10:33:14;;;;;;;0.90;0.40;;;;;;;18.94;66.65;101942.50;4864932;29;20513;-67
2023/09/30 10:35:49;;;;;;;0.90;0.40;;;;;;;19.02;66.14;101950.44;4862280;29;20450;-69
2023/09/30 10:38:43;;;;;;;0.90;0.40;;;;;;;19.05;67.19;101949.94;4856111;29;20468;-68
2023/09/30 10:41:12;;;;;;;0.90;0.40;;;;;;;18.79;65.90;101951.13;4869629;29;20449;-69
2023/09/30 10:43:43;;;;;;;0.90;0.50;;;;;;;18.97;65.01;101948.38;4859294;29;20536;-69
2023/09/30 10:46:36;;;;;;;0.87;0.40;;;;;;;19.01;63.54;101959.72;4860548;29;20488;-68
2023/09/30 10:49:33;;;;;;;1.00;0.63;;;;;;;18.78;64.95;101954.97;4857091;29;20492;-67
2023/09/30 10:52:02;;;;;;;0.90;0.40;;;;;;;18.72;63.46;101958.63;4858043;29;20470;-68
2023/09/30 10:54:33;;;;;;;0.90;0.50;;;;;;;18.58;63.83;101947.00;4857465;29;20488;-68
2023/09/30 10:57:03;;;;;;;0.90;0.40;;;;;;;18.45;65.04;101957.22;4867305;29;20481;-68
2023/09/30 10:59:34;;;;;;;0.90;0.40;;;;;;;18.72;64.27;101955.03;4869083;29;20447;-69
2023/09/30 11:02:04;;;;;;;0.90;0.50;;;;;;;18.94;63.51;101958.97;4867970;29;20479;-68
2023/09/30 11:04:47;;;;;;;0.90;0.50;;;;;;;19.08;63.50;101943.97;4865544;29;20442;-67
2023/09/30 11:07:23;;;;;;;0.90;0.40;;;;;;;19.42;62.09;101947.91;4865574;29;20880;-67
2023/09/30 11:09:52;;;;;;;0.90;0.50;;;;;;;19.71;60.31;101949.78;4858983;29;20496;-69
2023/09/30 11:12:21;;;;;;;0.90;0.40;;;;;;;19.39;59.84;101941.00;4864143;29;20546;-68
2023/09/30 11:15:01;;;;;;;0.90;0.40;;;;;;;19.88;58.40;101933.44;4869614;29;20931;-69
2023/09/30 11:17:30;;;;;;;5.83;1.50;;;;;;;20.26;58.29;101944.75;4869486;29;20432;-67
2023/09/30 11:19:59;;;;;;;0.90;0.40;;;;;;;20.06;57.18;101951.69;4866961;29;20752;-67
2023/09/30 11:22:28;;;;;;;0.90;0.40;;;;;;;19.55;59.63;101938.66;4865185;29;21016;-67
2023/09/30 11:24:56;;;;;;;0.90;0.40;;;;;;;19.26;61.24;101941.22;4864463;29;20403;-67
2023/09/30 11:27:26;;;;;;;0.93;0.57;;;;;;;19.10;61.68;101936.38;4864045;29;20497;-67
2023/09/30 11:29:57;;;;;;;0.90;0.40;;;;;;;19.00;62.35;101936.94;4868715;29;20886;-67
2023/09/30 11:32:28;;;;;;;1.00;0.70;;;;;;;19.03;62.43;101947.44;4866368;29;20456;-68
2023/09/30 11:34:57;;;;;;;0.90;0.40;;;;;;;19.05;62.63;101936.22;4866354;29;20802;-69
2023/09/30 11:37:31;;;;;;;0.90;0.40;;;;;;;19.21;62.26;101927.34;4863655;29;20949;-68
2023/09/30 11:40:14;;;;;;;0.90;0.40;;;;;;;19.18;62.49;101930.53;4858867;29;20938;-67